Time;durP1;ratioP1;P1;durP2;ratioP2;P2;SDS_P1;SDS_P2;PMS_P1;PMS_P2;Temp;Humidity;BMP_temperature;BMP_pressure;BME280_temperature;BME280_humidity;BME280_pressure;Samples;Min_cycle;Max_cycle;Signal;HPM_P1;HPM_P2
2023/04/08 00:00:15;;;;;;;15.40;5.47;;;13.70;96.00;;;;;;5015704;28;20129;-67
2023/04/08 00:02:41;;;;;;;16.90;5.70;;;13.70;95.90;;;;;;5015671;28;20018;-67
2023/04/08 00:05:07;;;;;;;20.23;6.93;;;13.70;96.10;;;;;;5015362;28;20457;-67
2023/04/08 00:07:33;;;;;;;17.30;6.00;;;13.70;96.40;;;;;;5015451;28;20565;-67
2023/04/08 00:09:58;;;;;;;15.48;5.82;;;13.70;96.20;;;;;;5015527;28;20715;-67
2023/04/08 00:12:24;;;;;;;16.92;6.05;;;13.60;96.20;;;;;;5015549;28;20079;-67
2023/04/08 00:14:49;;;;;;;19.00;6.32;;;13.70;96.30;;;;;;5015481;28;20038;-67
2023/04/08 00:17:15;;;;;;;19.90;6.25;;;13.70;96.30;;;;;;5015520;28;20049;-67
2023/04/08 00:19:41;;;;;;;16.98;6.13;;;13.70;96.40;;;;;;5015545;28;20030;-67
2023/04/08 00:22:07;;;;;;;17.67;6.18;;;13.60;96.40;;;;;;5014998;28;20026;-67
2023/04/08 00:24:32;;;;;;;19.23;6.38;;;13.60;96.50;;;;;;5015310;28;20105;-67
2023/04/08 00:26:58;;;;;;;20.20;6.85;;;13.60;96.60;;;;;;5015147;28;20106;-67
2023/04/08 00:29:24;;;;;;;17.08;5.85;;;13.60;96.50;;;;;;5015449;28;20026;-67
2023/04/08 00:31:50;;;;;;;18.90;5.95;;;13.60;96.60;;;;;;5015056;28;20021;-67
2023/04/08 00:34:16;;;;;;;18.65;5.55;;;13.60;96.60;;;;;;5015414;28;20427;-67
2023/04/08 00:36:41;;;;;;;15.77;5.78;;;13.60;96.70;;;;;;5014692;28;20038;-67
2023/04/08 00:39:07;;;;;;;16.45;5.35;;;13.60;96.60;;;;;;5014051;28;20139;-67
2023/04/08 00:41:34;;;;;;;16.83;4.80;;;13.60;96.60;;;;;;5014877;28;20491;-67
2023/04/08 00:44:00;;;;;;;13.60;5.47;;;13.60;96.50;;;;;;5014588;28;20088;-67
2023/04/08 00:46:26;;;;;;;17.98;5.90;;;13.60;96.50;;;;;;5015093;28;20486;-67
2023/04/08 00:48:52;;;;;;;16.10;5.82;;;13.60;96.50;;;;;;5014934;28;20113;-67
2023/04/08 00:51:18;;;;;;;15.82;6.05;;;13.50;96.50;;;;;;5014594;28;20471;-67
2023/04/08 00:53:43;;;;;;;13.52;6.00;;;13.60;96.60;;;;;;5014735;28;20026;-67
2023/04/08 00:56:10;;;;;;;16.95;5.93;;;13.50;96.50;;;;;;5014740;28;20037;-67
2023/04/08 00:58:36;;;;;;;16.38;6.00;;;13.50;96.60;;;;;;5014834;28;20022;-67
2023/04/08 01:01:28;;;;;;;13.88;6.70;;;13.50;96.50;;;;;;5014828;28;20022;-67
2023/04/08 01:04:37;;;;;;;17.27;6.32;;;13.50;96.60;;;;;;5014439;28;20099;-67
2023/04/08 01:07:21;;;;;;;16.77;6.43;;;13.50;96.60;;;;;;5014754;28;20080;-67
2023/04/08 01:09:55;;;;;;;13.23;6.22;;;13.50;96.70;;;;;;5014649;28;20061;-67
2023/04/08 01:12:26;;;;;;;14.50;5.93;;;13.50;96.70;;;;;;5014275;28;20022;-67
2023/04/08 01:15:00;;;;;;;18.85;7.10;;;13.50;96.70;;;;;;5014228;28;20117;-67
2023/04/08 01:17:26;;;;;;;16.42;6.75;;;13.50;96.70;;;;;;5014284;28;20037;-67
2023/04/08 01:19:55;;;;;;;18.67;6.63;;;13.50;96.70;;;;;;5014126;28;20456;-67
2023/04/08 01:22:45;;;;;;;14.48;7.28;;;13.50;97.00;;;;;;5014236;28;20033;-67
2023/04/08 01:25:20;;;;;;;19.48;7.30;;;13.50;96.80;;;;;;5014087;28;20454;-67
2023/04/08 01:27:48;;;;;;;16.38;8.25;;;13.40;96.80;;;;;;5014157;28;20037;-67
2023/04/08 01:30:16;;;;;;;19.50;7.47;;;13.50;96.70;;;;;;5014185;28;20096;-67
2023/04/08 01:32:44;;;;;;;19.40;8.10;;;13.50;96.80;;;;;;5013650;28;20434;-67
2023/04/08 01:35:10;;;;;;;21.67;8.70;;;13.50;96.80;;;;;;5014076;28;20497;-67
2023/04/08 01:37:37;;;;;;;15.85;7.90;;;13.40;96.70;;;;;;5013992;28;20022;-67
2023/04/08 01:40:06;;;;;;;21.13;7.93;;;13.40;96.70;;;;;;5013969;28;20479;-67
2023/04/08 01:42:33;;;;;;;13.77;8.25;;;13.40;96.70;;;;;;5013898;28;20025;-67
2023/04/08 01:44:59;;;;;;;21.65;8.23;;;13.40;96.80;;;;;;5013668;28;20028;-67
2023/04/08 01:47:26;;;;;;;16.98;8.07;;;13.40;96.80;;;;;;5013375;28;20116;-67
2023/04/08 01:49:53;;;;;;;18.63;8.70;;;13.40;96.80;;;;;;5013775;28;20030;-67
2023/04/08 01:52:21;;;;;;;15.85;8.30;;;13.40;96.90;;;;;;5013634;28;20021;-67
2023/04/08 01:54:47;;;;;;;17.27;8.73;;;13.40;96.90;;;;;;5013861;28;20036;-67
2023/04/08 01:57:18;;;;;;;17.73;8.73;;;13.40;96.90;;;;;;5013539;28;20021;-67
2023/04/08 01:59:49;;;;;;;23.40;9.13;;;13.40;97.00;;;;;;5013716;28;20030;-67
2023/04/08 02:02:16;;;;;;;17.95;9.38;;;13.40;97.00;;;;;;5013256;28;20028;-67
2023/04/08 02:04:42;;;;;;;16.67;8.60;;;13.40;96.90;;;;;;5013379;28;20112;-67
2023/04/08 02:07:08;;;;;;;21.73;9.05;;;13.40;96.90;;;;;;5013760;28;20121;-67
2023/04/08 02:09:34;;;;;;;17.50;9.23;;;13.40;96.90;;;;;;5013453;28;20025;-67
2023/04/08 02:12:00;;;;;;;18.33;9.07;;;13.40;96.90;;;;;;5013472;28;20091;-67
2023/04/08 02:14:27;;;;;;;20.17;9.27;;;13.40;96.90;;;;;;5013075;28;20379;-67
2023/04/08 02:17:11;;;;;;;21.88;10.02;;;13.40;96.90;;;;;;5012935;28;20458;-67
2023/04/08 02:19:46;;;;;;;23.05;10.55;;;13.40;96.90;;;;;;5013236;28;20029;-67
2023/04/08 02:22:23;;;;;;;19.10;9.57;;;13.40;96.90;;;;;;5013426;28;20033;-67
2023/04/08 02:24:49;;;;;;;17.20;9.77;;;13.30;97.00;;;;;;5013361;28;20032;-67
2023/04/08 02:27:17;;;;;;;21.90;11.10;;;13.30;97.10;;;;;;4995538;28;20398;-67
2023/04/08 02:29:44;;;;;;;23.02;11.45;;;13.30;97.10;;;;;;5013024;28;20022;-67
2023/04/08 02:32:11;;;;;;;24.63;10.85;;;13.30;97.10;;;;;;5012982;28;20014;-67
2023/04/08 02:34:40;;;;;;;17.90;10.77;;;13.30;97.10;;;;;;5013049;28;20501;-67
2023/04/08 02:37:07;;;;;;;17.92;10.30;;;13.30;97.10;;;;;;5013347;28;20356;-67
2023/04/08 02:39:33;;;;;;;17.30;11.07;;;13.30;97.00;;;;;;5013294;28;20029;-67
2023/04/08 02:41:58;;;;;;;20.77;11.07;;;13.30;97.00;;;;;;5013063;28;20022;-67
2023/04/08 02:44:24;;;;;;;22.08;11.05;;;13.30;97.10;;;;;;5012770;28;20022;-67
2023/04/08 02:46:50;;;;;;;23.73;10.90;;;13.30;97.10;;;;;;5012889;28;20037;-67
2023/04/08 02:49:15;;;;;;;22.48;11.32;;;13.30;97.20;;;;;;5012932;28;20029;-67
2023/04/08 02:51:41;;;;;;;19.00;10.77;;;13.30;97.10;;;;;;5012810;28;20068;-67
2023/04/08 02:54:06;;;;;;;21.77;11.07;;;13.30;97.10;;;;;;5012946;28;20026;-67
2023/04/08 02:56:32;;;;;;;19.42;10.68;;;13.30;97.10;;;;;;5012859;28;20030;-67
2023/04/08 02:58:57;;;;;;;21.52;11.70;;;13.20;97.10;;;;;;5012838;28;20022;-67
2023/04/08 03:01:23;;;;;;;23.40;11.77;;;13.20;97.10;;;;;;5012920;28;20053;-67
2023/04/08 03:03:49;;;;;;;19.88;11.10;;;13.20;97.10;;;;;;5018953;28;20025;-67
2023/04/08 03:06:14;;;;;;;19.85;10.85;;;13.20;97.30;;;;;;5019478;28;20383;-67
2023/04/08 03:08:40;;;;;;;25.02;11.95;;;13.20;97.20;;;;;;5019289;28;20018;-67
2023/04/08 03:11:06;;;;;;;22.85;11.13;;;13.20;97.20;;;;;;5001528;28;20041;-67
2023/04/08 03:13:31;;;;;;;20.80;10.70;;;13.20;97.20;;;;;;5019130;28;20021;-67
2023/04/08 03:15:57;;;;;;;17.80;11.30;;;13.30;97.20;;;;;;5018670;28;20038;-67
2023/04/08 03:18:23;;;;;;;19.73;11.30;;;13.20;97.30;;;;;;5019600;28;20025;-67
2023/04/08 03:20:48;;;;;;;19.48;10.98;;;13.20;97.30;;;;;;5019118;28;20037;-67
2023/04/08 03:23:14;;;;;;;20.77;11.25;;;13.30;97.30;;;;;;5019277;28;20029;-67
2023/04/08 03:25:39;;;;;;;24.25;12.27;;;13.20;97.40;;;;;;5018929;28;20018;-67
2023/04/08 03:28:05;;;;;;;22.38;10.93;;;13.20;97.40;;;;;;5019030;28;20061;-67
2023/04/08 03:30:30;;;;;;;25.88;11.55;;;13.20;97.40;;;;;;5018797;28;20085;-67
2023/04/08 03:32:56;;;;;;;17.77;10.93;;;13.20;97.40;;;;;;5001243;28;20037;-67
2023/04/08 03:35:21;;;;;;;19.95;11.98;;;13.20;97.40;;;;;;5001323;28;20041;-67
2023/04/08 03:37:47;;;;;;;19.30;12.07;;;13.20;97.50;;;;;;5019065;28;20022;-67
2023/04/08 03:40:13;;;;;;;23.02;10.95;;;13.20;97.60;;;;;;5019046;28;20578;-67
2023/04/08 03:42:38;;;;;;;22.25;11.98;;;13.20;97.60;;;;;;5012230;28;20434;-67
2023/04/08 03:45:04;;;;;;;23.23;11.27;;;13.20;97.60;;;;;;5009386;28;20084;-67
2023/04/08 03:47:30;;;;;;;21.30;11.48;;;13.20;97.60;;;;;;5017908;28;20483;-67
2023/04/08 03:49:55;;;;;;;22.38;11.90;;;13.10;97.60;;;;;;5017763;28;20056;-67
2023/04/08 03:52:23;;;;;;;19.67;11.68;;;13.10;97.60;;;;;;5018639;28;20479;-67
2023/04/08 03:54:49;;;;;;;23.58;13.38;;;13.10;97.60;;;;;;5018808;28;20066;-67
2023/04/08 03:57:14;;;;;;;21.65;11.95;;;13.10;97.60;;;;;;5019295;28;20064;-67
2023/04/08 03:59:40;;;;;;;20.00;11.13;;;13.10;97.60;;;;;;5018954;28;20101;-67
2023/04/08 04:02:06;;;;;;;23.55;11.50;;;13.10;97.60;;;;;;5019161;28;20483;-67
2023/04/08 04:04:31;;;;;;;19.35;11.45;;;13.10;97.60;;;;;;5019121;28;20018;-67
2023/04/08 04:06:57;;;;;;;22.63;12.23;;;13.10;97.70;;;;;;5019112;28;20061;-67
2023/04/08 04:09:22;;;;;;;22.02;12.35;;;13.10;97.60;;;;;;5018728;28;20033;-67
2023/04/08 04:11:48;;;;;;;23.15;12.15;;;13.10;97.70;;;;;;5018523;28;20072;-67
2023/04/08 04:14:13;;;;;;;21.23;11.77;;;13.10;97.70;;;;;;5016431;28;20033;-67
2023/04/08 04:16:39;;;;;;;19.77;11.80;;;13.10;97.70;;;;;;5015363;28;20168;-67
2023/04/08 04:19:04;;;;;;;26.45;12.82;;;13.10;97.70;;;;;;4998144;28;20038;-67
2023/04/08 04:21:30;;;;;;;20.20;12.30;;;13.10;97.70;;;;;;4997827;28;20018;-67
2023/04/08 04:23:56;;;;;;;25.10;12.98;;;13.10;97.80;;;;;;5015473;28;20112;-67
2023/04/08 04:26:21;;;;;;;24.85;13.63;;;13.10;97.80;;;;;;5015255;28;20033;-67
2023/04/08 04:28:47;;;;;;;23.90;12.85;;;13.10;97.80;;;;;;5015181;28;20022;-67
2023/04/08 04:31:25;;;;;;;20.67;13.60;;;13.10;97.80;;;;;;5015147;28;20467;-67
2023/04/08 04:33:50;;;;;;;24.65;14.52;;;13.10;97.90;;;;;;5015379;28;20030;-67
2023/04/08 04:36:16;;;;;;;27.65;13.93;;;13.10;97.80;;;;;;4997545;28;20390;-67
2023/04/08 04:38:42;;;;;;;20.52;14.48;;;13.10;97.90;;;;;;5015139;28;20038;-67
2023/04/08 04:41:07;;;;;;;23.77;13.93;;;13.00;97.70;;;;;;5015200;28;20034;-67
2023/04/08 04:43:33;;;;;;;21.50;13.65;;;13.00;97.70;;;;;;5014791;28;20025;-67
2023/04/08 04:45:59;;;;;;;21.25;14.27;;;13.00;97.80;;;;;;5014811;28;20411;-67
2023/04/08 04:48:25;;;;;;;23.30;13.68;;;13.00;97.80;;;;;;5015046;28;20034;-67
2023/04/08 04:50:58;;;;;;;24.92;13.82;;;13.00;97.80;;;;;;5014926;28;20080;-67
2023/04/08 04:53:23;;;;;;;22.77;13.40;;;13.00;97.80;;;;;;5014867;28;20113;-67
2023/04/08 04:55:50;;;;;;;20.83;14.05;;;13.00;97.80;;;;;;5014495;28;20116;-66
2023/04/08 04:58:15;;;;;;;25.27;14.00;;;13.00;97.80;;;;;;5015032;28;20041;-67
2023/04/08 05:00:41;;;;;;;23.13;13.48;;;13.00;97.80;;;;;;5011061;28;20379;-67
2023/04/08 05:03:06;;;;;;;20.40;13.20;;;13.00;97.90;;;;;;5005050;28;20379;-67
2023/04/08 05:05:32;;;;;;;20.98;13.25;;;13.00;97.90;;;;;;5014817;28;20475;-66
2023/04/08 05:07:58;;;;;;;24.42;13.18;;;13.00;97.90;;;;;;5014565;28;20037;-67
2023/04/08 05:10:23;;;;;;;19.85;13.38;;;13.00;98.00;;;;;;5014667;28;20018;-68
2023/04/08 05:12:49;;;;;;;23.27;12.65;;;12.90;97.90;;;;;;5011875;28;20033;-67
2023/04/08 05:15:14;;;;;;;24.02;12.93;;;13.00;97.90;;;;;;5013867;28;20038;-67
2023/04/08 05:17:40;;;;;;;23.08;13.05;;;13.00;97.90;;;;;;5013279;28;20116;-67
2023/04/08 05:20:06;;;;;;;21.13;13.15;;;13.00;98.00;;;;;;5012912;28;20490;-67
2023/04/08 05:22:31;;;;;;;23.90;12.85;;;13.00;98.00;;;;;;5014581;28;20051;-67
2023/04/08 05:24:57;;;;;;;20.40;12.30;;;13.00;98.00;;;;;;5013857;28;20382;-67
2023/04/08 05:27:23;;;;;;;20.15;12.65;;;13.00;97.90;;;;;;5014167;28;20479;-66
2023/04/08 05:29:48;;;;;;;23.52;12.38;;;13.00;98.00;;;;;;5014190;28;20030;-67
2023/04/08 05:32:15;;;;;;;18.90;11.90;;;13.00;98.00;;;;;;5014079;28;20026;-67
2023/04/08 05:34:41;;;;;;;19.55;11.68;;;13.00;98.10;;;;;;5014203;28;20141;-66
2023/04/08 05:37:07;;;;;;;20.58;12.02;;;13.00;98.10;;;;;;5013912;28;20105;-66
2023/04/08 05:39:32;;;;;;;16.15;11.45;;;12.90;98.10;;;;;;5013865;28;20131;-67
2023/04/08 05:41:58;;;;;;;26.63;12.80;;;12.90;98.20;;;;;;5013907;28;20034;-67
2023/04/08 05:44:23;;;;;;;20.65;12.57;;;12.90;98.10;;;;;;5013979;28;20036;-67
2023/04/08 05:46:49;;;;;;;17.88;11.23;;;12.90;98.20;;;;;;5013745;28;20030;-67
2023/04/08 05:49:16;;;;;;;21.30;12.27;;;12.90;98.20;;;;;;5013814;28;20254;-67
2023/04/08 05:51:41;;;;;;;21.85;11.82;;;12.90;98.20;;;;;;5010830;28;20029;-67
2023/04/08 05:54:07;;;;;;;19.83;12.07;;;12.90;98.30;;;;;;5004074;28;20030;-67
2023/04/08 05:56:33;;;;;;;21.23;12.93;;;12.90;98.30;;;;;;5010978;28;20036;-67
2023/04/08 05:58:59;;;;;;;23.30;13.77;;;12.90;98.30;;;;;;5012583;28;20017;-67
2023/04/08 06:01:25;;;;;;;17.90;11.32;;;12.90;98.40;;;;;;5010851;28;20029;-68
2023/04/08 06:03:55;;;;;;;19.90;13.30;;;12.90;98.40;;;;;;4990033;28;20022;-67
2023/04/08 06:06:21;;;;;;;22.60;13.40;;;12.90;98.40;;;;;;5012561;28;20064;-67
2023/04/08 06:08:47;;;;;;;20.40;11.88;;;13.00;98.30;;;;;;5011918;28;20026;-67
2023/04/08 06:11:13;;;;;;;19.50;11.13;;;13.00;98.30;;;;;;5013035;28;20518;-67
2023/04/08 06:13:38;;;;;;;22.92;12.88;;;13.00;98.40;;;;;;5011454;28;20034;-68
2023/04/08 06:16:15;;;;;;;22.52;11.60;;;13.00;98.50;;;;;;5012945;28;20030;-68
2023/04/08 06:18:41;;;;;;;20.75;11.93;;;13.00;98.50;;;;;;5012488;28;20113;-69
2023/04/08 06:21:07;;;;;;;20.45;12.23;;;13.00;98.50;;;;;;5012216;28;20125;-67
2023/04/08 06:23:33;;;;;;;22.13;12.32;;;13.00;98.60;;;;;;5011657;28;20410;-67
2023/04/08 06:25:59;;;;;;;20.30;12.90;;;13.00;98.60;;;;;;5009780;28;20033;-67
2023/04/08 06:28:25;;;;;;;16.98;11.77;;;13.10;98.70;;;;;;5006403;28;20029;-67
2023/04/08 06:30:50;;;;;;;17.42;10.90;;;13.10;98.80;;;;;;5005671;28;20511;-67
2023/04/08 06:33:16;;;;;;;21.52;11.80;;;13.10;99.00;;;;;;5011477;28;20025;-67
2023/04/08 06:35:41;;;;;;;21.35;11.45;;;13.20;99.10;;;;;;5010039;28;20479;-67
2023/04/08 06:38:07;;;;;;;20.80;11.98;;;13.30;99.00;;;;;;5009146;28;20487;-67
2023/04/08 06:40:32;;;;;;;20.70;11.82;;;13.20;98.90;;;;;;5004944;28;20479;-67
2023/04/08 06:42:58;;;;;;;22.35;12.10;;;13.30;98.80;;;;;;4989239;28;20467;-67
2023/04/08 06:45:23;;;;;;;19.35;11.70;;;13.30;98.70;;;;;;5009944;28;20497;-67
2023/04/08 06:47:49;;;;;;;17.55;11.45;;;13.30;98.60;;;;;;5012769;28;20024;-67
2023/04/08 06:50:15;;;;;;;15.38;11.25;;;13.30;98.60;;;;;;4994592;28;20026;-67
2023/04/08 06:52:40;;;;;;;18.10;11.85;;;13.30;98.50;;;;;;5011552;28;20018;-66
2023/04/08 06:55:06;;;;;;;20.55;12.20;;;13.40;98.40;;;;;;5011609;28;20487;-67
2023/04/08 06:57:32;;;;;;;19.70;12.48;;;13.40;98.40;;;;;;5007476;28;20032;-67
2023/04/08 06:59:59;;;;;;;21.33;12.25;;;13.40;98.40;;;;;;5008601;28;20026;-67
2023/04/08 07:02:25;;;;;;;17.00;9.43;;;13.40;98.30;;;;;;5011975;28;20113;-67
2023/04/08 07:04:50;;;;;;;19.65;10.05;;;13.40;98.70;;;;;;5011808;28;20475;-68
2023/04/08 07:07:16;;;;;;;20.40;11.30;;;13.40;98.70;;;;;;5007596;28;20084;-67
2023/04/08 07:09:44;;;;;;;19.58;12.30;;;13.50;98.80;;;;;;5009108;28;20033;-67
2023/04/08 07:12:10;;;;;;;17.13;11.15;;;13.50;98.30;;;;;;5007371;28;20080;-67
2023/04/08 07:14:36;;;;;;;23.35;12.77;;;13.50;98.10;;;;;;5006736;28;20471;-67
2023/04/08 07:17:01;;;;;;;18.70;11.43;;;13.50;98.00;;;;;;4988275;28;20124;-67
2023/04/08 07:19:27;;;;;;;18.35;11.52;;;13.50;97.80;;;;;;5021697;28;20072;-66
2023/04/08 07:21:52;;;;;;;17.58;10.88;;;13.50;97.80;;;;;;5013381;28;20029;-68
2023/04/08 07:24:18;;;;;;;17.05;10.85;;;13.60;97.80;;;;;;5016279;28;20029;-67
2023/04/08 07:26:44;;;;;;;19.40;11.05;;;13.60;97.80;;;;;;5013830;28;20028;-67
2023/04/08 07:29:09;;;;;;;17.45;10.75;;;13.60;97.70;;;;;;5010500;28;20076;-67
2023/04/08 07:31:35;;;;;;;15.85;10.68;;;13.60;97.80;;;;;;5004261;28;20025;-67
2023/04/08 07:34:01;;;;;;;16.13;11.05;;;13.50;97.80;;;;;;5009760;28;20026;-66
2023/04/08 07:36:27;;;;;;;14.73;11.55;;;13.50;97.80;;;;;;5004513;28;20025;-67
2023/04/08 07:38:52;;;;;;;21.33;12.00;;;13.60;97.90;;;;;;5005010;28;20446;-67
2023/04/08 07:41:18;;;;;;;17.08;12.02;;;13.60;98.10;;;;;;5004637;28;20060;-67
2023/04/08 07:43:44;;;;;;;15.65;11.68;;;13.60;98.00;;;;;;5005897;28;20030;-67
2023/04/08 07:46:09;;;;;;;18.42;11.25;;;13.60;97.80;;;;;;5005070;28;20467;-67
2023/04/08 07:48:35;;;;;;;15.80;12.75;;;13.50;97.90;;;;;;5003513;28;20045;-66
2023/04/08 07:51:08;;;;;;;15.65;11.52;;;13.60;97.80;;;;;;5017391;28;20025;-66
2023/04/08 07:53:34;;;;;;;17.13;12.43;;;13.70;97.70;;;;;;5019729;28;20056;-67
2023/04/08 07:56:02;;;;;;;17.50;12.88;;;13.60;97.60;;;;;;5016459;28;20038;-66
2023/04/08 07:58:29;;;;;;;17.45;12.82;;;13.70;97.60;;;;;;5026338;28;20501;-66
2023/04/08 08:00:56;;;;;;;21.25;12.90;;;13.70;97.40;;;;;;5024993;28;20029;-65
2023/04/08 08:03:22;;;;;;;18.38;11.93;;;13.60;97.50;;;;;;5012830;28;20022;-66
2023/04/08 08:05:48;;;;;;;15.00;12.02;;;13.70;97.60;;;;;;5009715;28;20040;-66
2023/04/08 08:08:13;;;;;;;15.85;12.55;;;13.60;97.60;;;;;;5019219;28;20384;-66
2023/04/08 08:10:39;;;;;;;17.60;13.23;;;13.70;97.60;;;;;;5024455;28;20394;-66
2023/04/08 08:13:06;;;;;;;19.92;12.02;;;13.60;97.80;;;;;;5011381;28;20041;-66
2023/04/08 08:15:32;;;;;;;22.13;12.77;;;13.60;97.80;;;;;;5010408;28;20049;-66
2023/04/08 08:17:58;;;;;;;22.70;13.77;;;13.70;97.50;;;;;;5006519;28;20099;-65
2023/04/08 08:20:23;;;;;;;16.45;13.75;;;13.70;97.10;;;;;;5007245;28;20499;-63
2023/04/08 08:22:49;;;;;;;17.23;13.20;;;13.70;97.00;;;;;;5009349;28;20403;-67
2023/04/08 08:25:15;;;;;;;15.90;11.93;;;13.80;96.20;;;;;;5011016;28;20040;-66
2023/04/08 08:27:41;;;;;;;18.38;12.02;;;13.80;95.80;;;;;;5013745;28;20863;-67
2023/04/08 08:30:08;;;;;;;17.73;13.40;;;13.70;95.80;;;;;;5016571;28;20037;-67
2023/04/08 08:32:34;;;;;;;15.75;11.88;;;13.70;95.80;;;;;;5013942;28;20010;-66
2023/04/08 08:35:00;;;;;;;15.15;12.35;;;13.80;95.80;;;;;;5029182;28;20212;-66
2023/04/08 08:37:25;;;;;;;17.70;12.43;;;13.80;95.60;;;;;;5017362;28;20834;-67
2023/04/08 08:39:51;;;;;;;17.38;12.80;;;13.80;95.80;;;;;;5012148;28;20515;-67
2023/04/08 08:42:21;;;;;;;16.10;12.15;;;13.80;95.70;;;;;;5024571;28;20021;-66
2023/04/08 08:44:48;;;;;;;17.33;9.93;;;13.80;95.80;;;;;;5011460;28;20160;-69
2023/04/08 08:47:14;;;;;;;15.38;9.60;;;14.00;97.70;;;;;;5012744;28;20041;-69
2023/04/08 08:49:40;;;;;;;12.35;7.93;;;14.10;97.50;;;;;;5012573;28;20018;-66
2023/04/08 08:52:06;;;;;;;13.80;8.82;;;14.20;97.20;;;;;;5012111;28;20037;-66
2023/04/08 08:54:31;;;;;;;14.77;9.45;;;14.30;97.00;;;;;;5011867;28;20034;-68
2023/04/08 08:56:57;;;;;;;13.82;9.23;;;14.30;96.80;;;;;;5011470;28;20037;-70
2023/04/08 08:59:22;;;;;;;15.13;9.30;;;14.40;96.70;;;;;;5008024;28;20475;-68
2023/04/08 09:01:48;;;;;;;15.00;9.23;;;14.40;97.00;;;;;;5005055;28;20474;-68
2023/04/08 09:04:18;;;;;;;10.93;8.55;;;14.40;96.70;;;;;;5009613;28;20113;-69
2023/04/08 09:06:45;;;;;;;14.45;9.60;;;14.40;96.80;;;;;;5007450;28;20164;-67
2023/04/08 09:09:11;;;;;;;16.05;11.50;;;14.40;96.70;;;;;;5013147;28;20025;-67
2023/04/08 09:11:39;;;;;;;15.82;12.40;;;14.40;96.40;;;;;;5012632;28;20156;-66
2023/04/08 09:14:16;;;;;;;17.15;14.95;;;14.30;96.30;;;;;;5005389;28;20045;-67
2023/04/08 09:16:43;;;;;;;18.15;13.35;;;14.30;96.00;;;;;;5009202;28;20030;-66
2023/04/08 09:19:10;;;;;;;19.20;16.25;;;14.20;96.20;;;;;;5027276;28;20028;-67
2023/04/08 09:21:36;;;;;;;18.75;15.63;;;14.20;96.50;;;;;;5008179;28;20030;-67
2023/04/08 09:24:02;;;;;;;17.02;15.25;;;14.20;96.20;;;;;;5014187;28;20074;-66
2023/04/08 09:26:27;;;;;;;20.48;15.80;;;14.20;96.10;;;;;;5013822;28;20493;-67
2023/04/08 09:28:58;;;;;;;23.17;16.42;;;14.20;96.30;;;;;;5012280;28;20022;-67
2023/04/08 09:31:26;;;;;;;20.08;15.95;;;14.10;96.30;;;;;;5005497;28;20045;-67
2023/04/08 09:33:54;;;;;;;18.35;15.38;;;14.10;96.50;;;;;;4998654;28;20021;-67
2023/04/08 09:36:20;;;;;;;21.30;17.10;;;14.00;96.60;;;;;;5014350;28;20053;-70
2023/04/08 09:38:46;;;;;;;21.20;15.82;;;14.10;96.60;;;;;;5010355;28;20399;-68
2023/04/08 09:41:17;;;;;;;18.90;16.52;;;14.10;96.50;;;;;;5017564;28;20488;-68
2023/04/08 09:43:50;;;;;;;24.52;18.38;;;14.10;96.30;;;;;;4991785;28;20109;-68
2023/04/08 09:46:27;;;;;;;22.33;16.85;;;14.10;96.40;;;;;;5008386;28;20017;-68
2023/04/08 09:49:30;;;;;;;19.05;15.55;;;14.00;96.90;;;;;;5021579;28;20105;-68
2023/04/08 09:51:59;;;;;;;19.45;16.85;;;14.00;96.90;;;;;;4975575;28;20160;-68
2023/04/08 09:54:34;;;;;;;21.90;18.15;;;14.00;97.00;;;;;;4991368;28;20040;-64
2023/04/08 09:57:08;;;;;;;22.52;18.08;;;14.10;96.90;;;;;;5015037;28;20052;-68
2023/04/08 09:59:37;;;;;;;19.33;16.85;;;14.10;96.80;;;;;;5008256;28;20026;-69
2023/04/08 10:02:08;;;;;;;23.40;18.02;;;14.10;97.00;;;;;;5011409;28;20028;-70
2023/04/08 10:04:37;;;;;;;21.98;18.63;;;14.10;96.80;;;;;;5007442;28;20033;-69
2023/04/08 10:07:06;;;;;;;22.45;17.70;;;14.20;96.80;;;;;;5009428;28;20445;-68
2023/04/08 10:09:33;;;;;;;18.48;16.00;;;14.10;96.80;;;;;;5020050;28;20024;-69
2023/04/08 10:12:00;;;;;;;19.75;16.17;;;14.10;96.90;;;;;;5013019;28;20017;-72
2023/04/08 10:14:27;;;;;;;17.60;14.38;;;14.20;96.70;;;;;;5008730;28;20025;-72
2023/04/08 10:17:26;;;;;;;19.08;15.70;;;14.20;96.80;;;;;;5010458;28;20039;-71
2023/04/08 10:19:52;;;;;;;17.08;14.93;;;14.30;96.30;;;;;;4986234;28;20454;-72
2023/04/08 10:22:33;;;;;;;17.27;14.40;;;14.30;96.10;;;;;;5009002;28;20502;-72
2023/04/08 10:25:17;;;;;;;17.75;14.32;;;14.30;96.20;;;;;;5011895;28;20022;-71
2023/04/08 10:27:44;;;;;;;21.50;15.30;;;14.40;96.20;;;;;;5009675;28;20419;-72
2023/04/08 10:30:48;;;;;;;18.83;14.20;;;14.40;96.30;;;;;;5000049;28;20046;-68
2023/04/08 10:33:18;;;;;;;16.20;13.50;;;14.40;96.40;;;;;;4992901;28;20052;-72
2023/04/08 10:35:48;;;;;;;16.90;15.13;;;14.40;96.20;;;;;;5014249;28;20038;-69
2023/04/08 10:38:15;;;;;;;17.50;15.13;;;14.50;96.20;;;;;;5017321;28;20021;-72
2023/04/08 10:40:41;;;;;;;16.95;14.77;;;14.50;96.10;;;;;;5011880;28;20467;-73
2023/04/08 10:43:08;;;;;;;17.10;15.38;;;14.40;96.20;;;;;;5013832;28;20022;-71
2023/04/08 10:45:34;;;;;;;17.67;12.98;;;14.50;96.20;;;;;;5011756;28;20030;-72
2023/04/08 10:48:18;;;;;;;14.18;12.65;;;14.50;96.30;;;;;;5015303;28;20073;-72
2023/04/08 10:51:00;;;;;;;15.88;12.75;;;14.60;96.30;;;;;;5010795;28;20115;-72
2023/04/08 10:53:35;;;;;;;12.90;10.57;;;14.60;96.30;;;;;;5023399;28;20037;-71
2023/04/08 10:56:05;;;;;;;16.58;14.55;;;14.60;96.60;;;;;;5004772;28;20117;-72
2023/04/08 10:58:32;;;;;;;19.67;16.67;;;14.70;96.40;;;;;;5005389;28;20135;-72
2023/04/08 11:01:07;;;;;;;16.67;13.48;;;14.70;96.10;;;;;;4990388;28;20021;-72
2023/04/08 11:03:34;;;;;;;19.52;15.00;;;14.70;96.20;;;;;;5006549;28;20063;-70
2023/04/08 11:06:01;;;;;;;17.95;13.75;;;14.70;96.10;;;;;;5008035;28;20097;-70
2023/04/08 11:08:33;;;;;;;15.82;14.13;;;14.70;95.80;;;;;;5011760;28;20544;-72
2023/04/08 11:11:00;;;;;;;18.40;15.68;;;14.80;95.70;;;;;;5023730;28;20475;-70
2023/04/08 11:13:27;;;;;;;17.95;16.13;;;14.80;95.60;;;;;;5010567;28;20033;-71
2023/04/08 11:15:54;;;;;;;19.05;16.38;;;14.80;95.50;;;;;;5008577;28;20393;-72
2023/04/08 11:18:20;;;;;;;17.67;14.98;;;14.80;95.20;;;;;;5013028;28;20049;-71
2023/04/08 11:20:49;;;;;;;18.67;15.48;;;14.80;95.50;;;;;;4997576;28;20037;-71
2023/04/08 11:23:14;;;;;;;22.08;15.27;;;14.90;95.40;;;;;;5013304;28;20034;-71
2023/04/08 11:25:41;;;;;;;20.13;16.95;;;14.90;95.60;;;;;;5017209;28;20021;-71
2023/04/08 11:28:07;;;;;;;19.15;13.70;;;14.90;95.50;;;;;;5019674;28;20018;-73
2023/04/08 11:30:33;;;;;;;20.05;17.90;;;14.90;95.80;;;;;;5016479;28;20034;-68
2023/04/08 11:32:59;;;;;;;22.98;16.90;;;15.00;95.80;;;;;;5015476;28;20334;-69
2023/04/08 11:35:29;;;;;;;22.00;18.42;;;15.00;95.60;;;;;;5012362;28;20053;-70
2023/04/08 11:37:56;;;;;;;21.10;18.75;;;15.00;95.00;;;;;;5010398;28;20079;-69
2023/04/08 11:40:23;;;;;;;20.27;14.82;;;15.00;94.80;;;;;;5015997;28;20486;-70
2023/04/08 11:42:50;;;;;;;22.77;16.63;;;15.10;95.30;;;;;;5014372;28;20122;-70
2023/04/08 11:45:18;;;;;;;20.00;17.90;;;15.00;95.70;;;;;;5009580;28;20490;-70
2023/04/08 11:47:46;;;;;;;24.00;18.73;;;15.10;95.80;;;;;;5008587;28;20029;-70
2023/04/08 11:50:21;;;;;;;22.23;19.65;;;15.10;95.40;;;;;;5010410;28;20025;-71
2023/04/08 11:52:50;;;;;;;22.25;19.85;;;15.20;94.80;;;;;;5010715;28;20038;-72
2023/04/08 11:55:30;;;;;;;22.35;19.95;;;15.20;94.40;;;;;;5021447;28;20650;-70
2023/04/08 11:58:02;;;;;;;24.38;21.73;;;15.20;94.40;;;;;;5012971;28;20487;-70
2023/04/08 12:00:27;;;;;;;23.10;20.60;;;15.20;94.50;;;;;;5016529;28;20026;-70
2023/04/08 12:02:53;;;;;;;24.73;20.17;;;15.20;94.50;;;;;;5009970;28;20033;-70
2023/04/08 12:05:20;;;;;;;25.02;20.55;;;15.20;94.40;;;;;;5007793;28;20092;-70
2023/04/08 12:07:46;;;;;;;21.98;19.38;;;15.20;94.70;;;;;;5014615;28;20482;-68
2023/04/08 12:10:12;;;;;;;29.90;21.13;;;15.30;94.70;;;;;;5015108;28;20087;-70
2023/04/08 12:12:39;;;;;;;22.05;19.63;;;15.30;94.40;;;;;;5013874;28;20021;-70
2023/04/08 12:15:06;;;;;;;24.13;21.55;;;15.30;94.60;;;;;;5007872;28;20103;-69
2023/04/08 12:17:32;;;;;;;25.05;22.20;;;15.40;94.20;;;;;;4996771;28;20356;-69
2023/04/08 12:19:58;;;;;;;22.02;17.80;;;15.40;94.00;;;;;;5016031;28;20083;-69
2023/04/08 12:22:23;;;;;;;25.45;21.45;;;15.40;94.40;;;;;;5014416;28;20014;-69
2023/04/08 12:24:49;;;;;;;21.88;19.27;;;15.40;94.20;;;;;;5011015;28;20026;-68
2023/04/08 12:27:15;;;;;;;24.58;20.80;;;15.40;94.30;;;;;;5008786;28;20034;-69
2023/04/08 12:29:40;;;;;;;21.42;19.13;;;15.40;94.50;;;;;;5014235;28;20022;-70